Terminal Aerodrome Forecast
Issued by NWS Atlanta, GA

Home | Current Version | Previous Version | Text Only | Print | Product List | Glossary On
Versions: 1 2 3 4 5 6 7 8 9 10 11 12 13 14 15 16 17 18 19 20 21 22 23 24 25 26 27 28 29 30 31 32 33
000
FTAK31 PAJN 241740
TAFAHN
TAF
PAHN 241740Z 2418/2518 10008KT P6SM -SHRA OVC008
      TEMPO 2418/2420 10012KT 5SM BR BKN008 OVC035
     FM242000 11012G20KT P6SM VCSH SCT010 OVC035
      TEMPO 2420/2424 BKN010
     FM250500 11010KT 6SM BR VCSH FEW005 OVC025
      AMD LTD TO CLD VIS AND WIND=

USA.gov is the U.S. government's official web portal to all federal, state and local government web resources and services.